Main page
METAR-TAF:

METAR-TAF

Airports :

Melilla Airport

Melilla, Spain

latitude: 35-17N, longitude: 002-57W, elevation: 47 m

Current weather observation

The report was made 20 minutes ago, at 23:30 UTC
Wind 5 kt from the West/Southwest
Temperature 15°C
Humidity 67%
Pressure 1023 hPa
Visibility 10 km or more

METAR: GEML 282330Z AUTO 25005KT 9999 ////// 15/09 Q1023

Time: 00:50 (23:50 UTC)

Forecast

The report was made 3 hours and 50 minutes ago, at 20:00 UTC
Forecast valid from 28 at 21 UTC to 29 at 21 UTC
Wind 5 kt from the East
Visibility 10 km or more
no clouds below 1500 m and no cumulonimbus

TAF: GEML 282000Z 2821/2921 10005KT CAVOK TX22/2913Z TN14/2906Z

Weather observations and forecasts of more than 4000 airports (METAR and TAF reports).

The available stations are represented by yellow and red dots on the map.

Hover mouse over dot to see the name of the station.

Then click to see weather observations and forecasts.

To change the map : click on the green buttons with a black cross to zoom in, on the green button with a dash to zoom out, or on the green arrows for adjacent maps.


METAR-TAF: